Time;durP1;ratioP1;P1;durP2;ratioP2;P2;SDS_P1;SDS_P2;PMS_P1;PMS_P2;Temp;Humidity;BMP_temperature;BMP_pressure;BME280_temperature;BME280_humidity;BME280_pressure;Samples;Min_cycle;Max_cycle;Signal;HPM_P1;HPM_P2
2024/01/09 00:02:20;;;;;;;;;;;;;;;6.15;69.69;102918.53;7365779;19;19970;-65
2024/01/09 00:04:45;;;;;;;;;;;;;;;6.14;70.10;102914.19;7361192;19;19919;-65
2024/01/09 00:07:10;;;;;;;;;;;;;;;6.15;69.96;102918.53;7364747;19;19919;-65
2024/01/09 00:09:45;;;;;;;;;;;;;;;6.15;69.46;102918.53;7369930;19;19922;-64
2024/01/09 00:12:10;;;;;;;;;;;;;;;6.14;68.84;102908.97;7363292;19;20544;-65
2024/01/09 00:14:35;;;;;;;;;;;;;;;6.14;70.03;102912.47;7365310;19;19921;-65
2024/01/09 00:17:00;;;;;;;;;;;;;;;6.14;69.74;102914.19;7364483;19;20353;-65
2024/01/09 00:19:26;;;;;;;;;;;;;;;6.13;69.05;102907.19;7362113;19;20565;-65
2024/01/09 00:21:52;;;;;;;;;;;;;;;6.13;69.50;102900.31;7371992;19;19982;-65
2024/01/09 00:24:17;;;;;;;;;;;;;;;6.15;70.28;102897.78;7364194;19;19946;-65
2024/01/09 00:26:43;;;;;;;;;;;;;;;6.14;69.03;102899.50;7364685;19;20356;-60
2024/01/09 00:29:09;;;;;;;;;;;;;;;6.13;69.08;102896.81;7339972;19;19923;-65
2024/01/09 00:31:34;;;;;;;;;;;;;;;6.13;69.17;102897.72;7352024;19;19923;-63
2024/01/09 00:33:59;;;;;;;;;;;;;;;6.14;69.42;102903.78;7304236;19;22244;-66
2024/01/09 00:36:25;;;;;;;;;;;;;;;6.14;68.69;102904.69;7353633;19;19925;-65
2024/01/09 00:38:50;;;;;;;;;;;;;;;6.14;69.10;102889.09;7342113;19;20382;-65
2024/01/09 00:41:16;;;;;;;;;;;;;;;6.15;68.88;102895.19;7344366;19;19925;-65
2024/01/09 00:43:41;;;;;;;;;;;;;;;6.16;68.86;102891.75;7358670;19;20565;-65
2024/01/09 00:46:06;;;;;;;;;;;;;;;6.15;69.24;102896.06;7359688;19;19922;-66
2024/01/09 00:48:32;;;;;;;;;;;;;;;6.16;69.14;102889.16;7354620;19;19990;-66
2024/01/09 00:50:57;;;;;;;;;;;;;;;6.17;68.82;102893.50;7360831;19;20269;-66
2024/01/09 00:53:22;;;;;;;;;;;;;;;6.15;68.54;102890.00;7356964;19;19922;-65
2024/01/09 00:55:47;;;;;;;;;;;;;;;6.16;69.36;102889.16;7357394;19;19922;-65
2024/01/09 00:58:13;;;;;;;;;;;;;;;6.16;69.56;102886.56;7361510;19;19943;-66
2024/01/09 01:00:38;;;;;;;;;;;;;;;6.16;69.02;102881.38;7353268;19;20341;-65
2024/01/09 01:03:03;;;;;;;;;;;;;;;6.16;69.32;102881.38;7357136;19;19942;-65
2024/01/09 01:05:29;;;;;;;;;;;;;;;6.14;68.53;102877.84;7360065;19;20373;-65
2024/01/09 01:07:54;;;;;;;;;;;;;;;6.13;68.85;102865.69;7358206;19;19910;-66
2024/01/09 01:10:19;;;;;;;;;;;;;;;6.11;68.60;102872.56;7353886;19;19930;-65
2024/01/09 01:12:44;;;;;;;;;;;;;;;6.10;68.63;102866.50;7368640;19;20382;-66
2024/01/09 01:15:10;;;;;;;;;;;;;;;6.09;68.55;102877.72;7359210;19;19947;-66
2024/01/09 01:17:35;;;;;;;;;;;;;;;6.09;69.09;102866.47;7359203;19;19974;-65
2024/01/09 01:20:00;;;;;;;;;;;;;;;6.08;68.97;102867.28;7362139;19;20409;-65
2024/01/09 01:22:25;;;;;;;;;;;;;;;6.06;68.33;102859.44;7357886;19;19923;-65
2024/01/09 01:24:51;;;;;;;;;;;;;;;6.06;68.26;102853.38;7354830;19;19921;-66
2024/01/09 01:27:16;;;;;;;;;;;;;;;6.06;68.42;102853.38;7360671;19;19927;-66
2024/01/09 01:29:41;;;;;;;;;;;;;;;6.05;68.74;102847.31;7359712;19;19930;-65
2024/01/09 01:32:09;;;;;;;;;;;;;;;6.06;69.07;102863.75;7364354;19;20780;-66
2024/01/09 01:34:34;;;;;;;;;;;;;;;6.05;68.90;102862.00;7365461;19;19918;-66
2024/01/09 01:37:00;;;;;;;;;;;;;;;6.06;68.99;102863.75;7362393;19;19923;-66
2024/01/09 01:39:25;;;;;;;;;;;;;;;5.98;69.12;102835.91;7355570;19;19940;-65
2024/01/09 01:41:50;;;;;;;;;;;;;;;6.05;69.00;102836.06;7360679;19;19928;-66
2024/01/09 01:44:17;;;;;;;;;;;;;;;6.04;68.52;102827.41;7357864;19;20406;-66
2024/01/09 01:46:43;;;;;;;;;;;;;;;6.05;69.06;102823.09;7360035;19;19926;-65
2024/01/09 01:49:08;;;;;;;;;;;;;;;6.05;68.70;102838.66;7351649;19;19942;-65
2024/01/09 01:51:33;;;;;;;;;;;;;;;6.06;69.08;102837.81;7358102;19;19923;-65
2024/01/09 01:53:59;;;;;;;;;;;;;;;6.06;69.38;102837.81;7358549;19;19919;-66
2024/01/09 01:56:24;;;;;;;;;;;;;;;6.06;69.21;102832.63;7357562;19;19911;-67
2024/01/09 01:58:49;;;;;;;;;;;;;;;6.06;68.81;102835.22;7358177;19;19931;-68
2024/01/09 02:01:15;;;;;;;;;;;;;;;6.07;68.79;102836.97;7359843;19;20320;-68
2024/01/09 02:03:40;;;;;;;;;;;;;;;6.07;68.57;102839.56;7354942;19;19931;-68
2024/01/09 02:06:05;;;;;;;;;;;;;;;6.07;68.81;102840.44;7358614;19;19926;-68
2024/01/09 02:08:31;;;;;;;;;;;;;;;6.08;69.20;102842.22;7352092;19;19914;-67
2024/01/09 02:10:57;;;;;;;;;;;;;;;6.08;69.17;102846.53;7358404;19;19918;-67
2024/01/09 02:13:22;;;;;;;;;;;;;;;6.08;69.75;102839.63;7358607;19;20355;-68
2024/01/09 02:15:47;;;;;;;;;;;;;;;6.09;69.55;102840.53;7358963;19;19940;-67
2024/01/09 02:18:13;;;;;;;;;;;;;;;6.09;69.39;102849.19;7357966;19;19927;-67
2024/01/09 02:20:39;;;;;;;;;;;;;;;6.10;69.80;102847.47;7366977;19;19932;-67
2024/01/09 02:23:04;;;;;;;;;;;;;;;6.10;69.54;102839.69;7359397;19;19934;-67
2024/01/09 02:25:29;;;;;;;;;;;;;;;6.09;69.37;102848.31;7356433;19;20321;-67
2024/01/09 02:27:54;;;;;;;;;;;;;;;6.09;69.37;102843.13;7353730;19;19923;-67
2024/01/09 02:30:20;;;;;;;;;;;;;;;6.10;69.37;102839.69;7357986;19;19931;-67
2024/01/09 02:32:46;;;;;;;;;;;;;;;6.09;69.23;102840.53;7354771;19;19998;-67
2024/01/09 02:35:12;;;;;;;;;;;;;;;6.02;69.48;102830.78;7357639;19;19919;-67
2024/01/09 02:37:37;;;;;;;;;;;;;;;6.11;68.83;102841.44;7356153;19;19986;-67
2024/01/09 02:40:05;;;;;;;;;;;;;;;6.11;68.81;102836.25;7359210;19;19914;-67
2024/01/09 02:42:30;;;;;;;;;;;;;;;6.10;68.79;102837.09;7356346;19;19918;-67
2024/01/09 02:44:56;;;;;;;;;;;;;;;6.10;69.27;102832.78;7357568;19;19921;-67
2024/01/09 02:47:21;;;;;;;;;;;;;;;6.11;69.14;102831.94;7358405;19;19914;-67
2024/01/09 02:49:46;;;;;;;;;;;;;;;6.11;68.74;102828.47;7357666;19;19925;-67
2024/01/09 02:52:12;;;;;;;;;;;;;;;6.12;68.62;102832.81;7356519;19;19930;-67
2024/01/09 02:54:37;;;;;;;;;;;;;;;6.12;68.43;102833.69;7364116;19;20363;-67
2024/01/09 02:57:02;;;;;;;;;;;;;;;6.12;68.61;102843.19;7361657;19;19935;-68
2024/01/09 02:59:27;;;;;;;;;;;;;;;6.13;69.40;102844.94;7354794;19;19919;-67
2024/01/09 03:01:53;;;;;;;;;;;;;;;6.12;68.71;102836.28;7352792;19;19922;-67
2024/01/09 03:04:18;;;;;;;;;;;;;;;6.13;69.23;102838.06;7353557;19;19918;-68
2024/01/09 03:06:43;;;;;;;;;;;;;;;6.13;68.82;102842.34;7357296;19;19926;-67
2024/01/09 03:09:11;;;;;;;;;;;;;;;6.14;68.79;102836.34;7355664;19;20364;-67
2024/01/09 03:11:36;;;;;;;;;;;;;;;6.15;68.52;102825.13;7356755;19;19939;-67
2024/01/09 03:14:01;;;;;;;;;;;;;;;6.15;68.69;102827.72;7357126;19;20050;-67
2024/01/09 03:16:27;;;;;;;;;;;;;;;6.15;68.03;102827.72;7359620;19;19927;-67
2024/01/09 03:18:52;;;;;;;;;;;;;;;6.14;67.72;102837.22;7355207;19;20668;-67
2024/01/09 03:21:17;;;;;;;;;;;;;;;6.14;67.97;102820.78;7361111;19;19990;-67
2024/01/09 03:23:42;;;;;;;;;;;;;;;6.15;68.20;102832.91;7364319;19;19911;-67
2024/01/09 03:26:08;;;;;;;;;;;;;;;6.14;67.57;102833.75;7354878;19;19918;-67
2024/01/09 03:28:33;;;;;;;;;;;;;;;6.15;68.33;102835.50;7353188;19;20682;-68
2024/01/09 03:30:58;;;;;;;;;;;;;;;6.16;68.39;102829.47;7362421;19;19918;-67
2024/01/09 03:33:23;;;;;;;;;;;;;;;6.15;68.29;102820.81;7359214;19;19915;-68
2024/01/09 03:35:49;;;;;;;;;;;;;;;6.15;68.56;102823.41;7368404;19;19929;-67
2024/01/09 03:38:14;;;;;;;;;;;;;;;6.15;68.02;102818.22;7359014;19;20011;-67
2024/01/09 03:40:39;;;;;;;;;;;;;;;6.16;68.11;102819.09;7364051;19;19930;-67
2024/01/09 03:43:07;;;;;;;;;;;;;;;6.15;68.42;102820.81;7367640;19;20369;-67
2024/01/09 03:45:32;;;;;;;;;;;;;;;6.15;68.26;102822.53;7366915;19;19930;-67
2024/01/09 03:47:58;;;;;;;;;;;;;;;6.16;67.91;102824.28;7366137;19;19919;-67
2024/01/09 03:50:23;;;;;;;;;;;;;;;6.16;67.84;102825.16;7361742;19;20913;-67
2024/01/09 03:52:48;;;;;;;;;;;;;;;6.17;68.07;102821.75;7363794;19;19923;-67
2024/01/09 03:55:15;;;;;;;;;;;;;;;6.17;67.41;102831.22;7368788;19;19919;-67
2024/01/09 03:57:41;;;;;;;;;;;;;;;6.17;67.96;102836.41;7366465;19;19971;-67
2024/01/09 04:00:06;;;;;;;;;;;;;;;6.17;68.03;102820.84;7363632;19;19994;-67
2024/01/09 04:02:31;;;;;;;;;;;;;;;6.18;68.37;102818.34;7367527;19;19936;-67
2024/01/09 04:04:57;;;;;;;;;;;;;;;6.19;68.51;102819.22;7364923;19;19918;-67
2024/01/09 04:07:22;;;;;;;;;;;;;;;6.18;68.33;102818.34;7365040;19;19932;-67
2024/01/09 04:09:47;;;;;;;;;;;;;;;6.18;68.00;102809.63;7374362;19;19923;-67
2024/01/09 04:12:12;;;;;;;;;;;;;;;6.18;67.73;102825.22;7368242;19;19919;-68
2024/01/09 04:14:38;;;;;;;;;;;;;;;6.17;67.82;102820.84;7366248;19;19922;-67
2024/01/09 04:17:03;;;;;;;;;;;;;;;6.16;67.34;102819.09;7357375;19;21224;-67
2024/01/09 04:19:28;;;;;;;;;;;;;;;6.16;67.30;102819.09;7353237;19;19919;-68
2024/01/09 04:21:54;;;;;;;;;;;;;;;6.17;67.87;102820.84;7363108;19;19943;-67
2024/01/09 04:24:19;;;;;;;;;;;;;;;6.16;67.38;102819.09;7366697;19;19921;-67
2024/01/09 04:26:44;;;;;;;;;;;;;;;6.16;67.77;102813.91;7362889;19;19933;-67
2024/01/09 04:29:09;;;;;;;;;;;;;;;6.17;67.47;102816.53;7365989;19;19919;-67
2024/01/09 04:31:35;;;;;;;;;;;;;;;6.16;67.20;102825.16;7370230;19;19927;-67
2024/01/09 04:34:00;;;;;;;;;;;;;;;6.16;67.66;102812.19;7366391;19;20609;-67
2024/01/09 04:36:25;;;;;;;;;;;;;;;6.17;67.92;102807.88;7363083;19;20742;-67
2024/01/09 04:38:50;;;;;;;;;;;;;;;6.18;68.21;102807.03;7364100;19;19922;-67
2024/01/09 04:41:16;;;;;;;;;;;;;;;6.10;67.91;102805.97;7365273;19;19934;-67
2024/01/09 04:43:42;;;;;;;;;;;;;;;6.19;68.18;102824.41;7366556;19;19914;-67
2024/01/09 04:46:07;;;;;;;;;;;;;;;6.19;68.25;102820.09;7365593;19;20347;-67
2024/01/09 04:48:32;;;;;;;;;;;;;;;6.09;68.24;102801.63;7372703;19;20246;-67
2024/01/09 04:50:58;;;;;;;;;;;;;;;6.18;68.53;102822.63;7367121;19;19974;-67
2024/01/09 04:53:23;;;;;;;;;;;;;;;6.18;67.71;102825.22;7365172;19;19931;-67
2024/01/09 04:55:48;;;;;;;;;;;;;;;6.15;67.69;102817.34;7363161;19;19915;-67
2024/01/09 04:58:13;;;;;;;;;;;;;;;6.13;67.25;102813.81;7365498;19;20713;-67
2024/01/09 05:00:39;;;;;;;;;;;;;;;6.13;67.78;102811.22;7365085;19;19926;-67
2024/01/09 05:03:04;;;;;;;;;;;;;;;6.12;67.19;102804.28;7360796;19;19930;-67
2024/01/09 05:05:29;;;;;;;;;;;;;;;6.12;67.45;102801.69;7370899;19;19911;-67
2024/01/09 05:07:54;;;;;;;;;;;;;;;6.12;67.10;102804.28;7363501;19;20329;-67
2024/01/09 05:10:20;;;;;;;;;;;;;;;6.11;67.47;102794.75;7366248;19;19923;-67
2024/01/09 05:12:45;;;;;;;;;;;;;;;6.11;67.01;102800.81;7361506;19;19958;-67
2024/01/09 05:15:10;;;;;;;;;;;;;;;6.12;67.02;102797.38;7365255;19;20205;-67
2024/01/09 05:17:36;;;;;;;;;;;;;;;6.12;67.19;102802.56;7361570;19;20022;-67
2024/01/09 05:20:01;;;;;;;;;;;;;;;6.13;67.37;102806.03;7365966;19;20055;-67
2024/01/09 05:22:27;;;;;;;;;;;;;;;6.14;67.27;102811.28;7367768;19;19919;-67
2024/01/09 05:24:52;;;;;;;;;;;;;;;6.15;67.27;102812.16;7357621;19;19922;-67
2024/01/09 05:27:18;;;;;;;;;;;;;;;6.15;67.21;102801.78;7361343;19;19918;-67
2024/01/09 05:29:44;;;;;;;;;;;;;;;6.15;67.00;102800.06;7356757;19;19930;-67
2024/01/09 05:32:09;;;;;;;;;;;;;;;6.16;67.29;102803.53;7365589;19;20345;-67
2024/01/09 05:34:34;;;;;;;;;;;;;;;6.15;66.99;102809.56;7365221;19;20740;-67
2024/01/09 05:36:59;;;;;;;;;;;;;;;6.16;67.14;102808.72;7357781;19;20479;-67
2024/01/09 05:39:25;;;;;;;;;;;;;;;6.15;67.04;102802.66;7365329;19;20958;-67
2024/01/09 05:41:50;;;;;;;;;;;;;;;6.15;67.07;102807.84;7363165;19;19935;-67
2024/01/09 05:44:16;;;;;;;;;;;;;;;6.16;67.06;102799.22;7364990;19;19926;-67
2024/01/09 05:46:41;;;;;;;;;;;;;;;6.17;66.65;102813.06;7362652;19;20373;-67
2024/01/09 05:49:06;;;;;;;;;;;;;;;6.17;67.14;102798.38;7365577;19;19923;-67
2024/01/09 05:51:32;;;;;;;;;;;;;;;6.18;67.05;102807.03;7366452;19;19914;-67
2024/01/09 05:53:57;;;;;;;;;;;;;;;6.18;66.80;102807.97;7356878;19;20494;-67
2024/01/09 05:56:23;;;;;;;;;;;;;;;6.20;67.03;102815.78;7368123;19;19931;-67
2024/01/09 05:58:48;;;;;;;;;;;;;;;6.20;67.34;102818.38;7364473;19;19990;-67
2024/01/09 06:01:13;;;;;;;;;;;;;;;6.20;67.19;102820.97;7366942;19;19923;-67
2024/01/09 06:03:39;;;;;;;;;;;;;;;6.21;67.57;102817.53;7366530;19;19943;-67
2024/01/09 06:06:04;;;;;;;;;;;;;;;6.21;66.62;102818.41;7366402;19;20368;-67
2024/01/09 06:08:29;;;;;;;;;;;;;;;6.22;66.98;102814.09;7362257;19;19918;-67
2024/01/09 06:10:54;;;;;;;;;;;;;;;6.23;66.92;102813.25;7361172;19;19955;-67
2024/01/09 06:13:20;;;;;;;;;;;;;;;6.23;67.24;102800.28;7362505;19;19927;-67
2024/01/09 06:15:45;;;;;;;;;;;;;;;6.22;66.89;102804.59;7357724;19;19919;-67
2024/01/09 06:18:10;;;;;;;;;;;;;;;6.24;67.39;102807.25;7347189;19;19918;-67
2024/01/09 06:20:35;;;;;;;;;;;;;;;6.23;66.80;102800.28;7359694;19;19931;-67
2024/01/09 06:23:01;;;;;;;;;;;;;;;6.23;66.89;102798.59;7364157;19;19986;-67
2024/01/09 06:25:26;;;;;;;;;;;;;;;6.23;66.22;102802.88;7362434;19;19922;-67
2024/01/09 06:27:51;;;;;;;;;;;;;;;6.21;66.56;102797.66;7359856;19;20404;-67
2024/01/09 06:30:17;;;;;;;;;;;;;;;6.23;66.74;102806.38;7369282;19;19919;-68
2024/01/09 06:32:42;;;;;;;;;;;;;;;6.23;66.59;102800.28;7361900;19;20006;-67
2024/01/09 06:35:08;;;;;;;;;;;;;;;6.23;66.93;102800.28;7362092;19;19922;-67
2024/01/09 06:37:33;;;;;;;;;;;;;;;6.23;66.47;102806.38;7361886;19;19926;-67
2024/01/09 06:39:58;;;;;;;;;;;;;;;6.23;66.94;102805.47;7362276;19;19919;-67
2024/01/09 06:42:23;;;;;;;;;;;;;;;6.26;67.18;102810.75;7362752;19;19922;-67
2024/01/09 06:44:49;;;;;;;;;;;;;;;6.26;67.45;102821.13;7368101;19;19921;-67
2024/01/09 06:47:14;;;;;;;;;;;;;;;6.26;67.13;102815.06;7360749;19;20467;-67
2024/01/09 06:49:39;;;;;;;;;;;;;;;6.26;67.21;102818.53;7361728;19;19990;-67
2024/01/09 06:52:05;;;;;;;;;;;;;;;6.27;67.01;102822.00;7367366;19;19915;-67
2024/01/09 06:54:30;;;;;;;;;;;;;;;6.26;67.24;102836.69;7359994;19;19910;-67
2024/01/09 06:56:55;;;;;;;;;;;;;;;6.28;67.32;102840.22;7353823;19;19929;-67
2024/01/09 06:59:21;;;;;;;;;;;;;;;6.29;67.66;102835.94;7358432;19;19927;-67
2024/01/09 07:01:46;;;;;;;;;;;;;;;6.28;67.00;102831.53;7361947;19;19935;-67
2024/01/09 07:04:12;;;;;;;;;;;;;;;6.27;66.98;102835.84;7361599;19;19947;-67
2024/01/09 07:06:37;;;;;;;;;;;;;;;6.29;67.13;102836.81;7367657;19;19925;-67
2024/01/09 07:09:03;;;;;;;;;;;;;;;6.28;66.62;102845.41;7366757;19;19943;-67
2024/01/09 07:11:49;;;;;;;;;;;;;;;6.29;67.27;102842.00;7366219;19;19917;-67
2024/01/09 07:14:14;;;;;;;;;;;;;;;6.30;67.04;102848.06;7361931;19;20041;-67
2024/01/09 07:16:40;;;;;;;;;;;;;;;6.30;66.26;102848.94;7366454;19;20043;-67
2024/01/09 07:19:05;;;;;;;;;;;;;;;6.29;66.34;102852.38;7368165;19;19923;-67
2024/01/09 07:21:30;;;;;;;;;;;;;;;6.30;67.00;102851.53;7369096;19;20539;-67
2024/01/09 07:23:56;;;;;;;;;;;;;;;6.31;67.33;102850.69;7371864;19;20445;-67
2024/01/09 07:26:21;;;;;;;;;;;;;;;6.31;66.59;102842.91;7364910;19;19922;-67
2024/01/09 07:28:46;;;;;;;;;;;;;;;6.31;66.62;102849.81;7362674;19;19934;-67
2024/01/09 07:31:11;;;;;;;;;;;;;;;6.31;66.68;102848.09;7374395;19;19967;-67
2024/01/09 07:33:36;;;;;;;;;;;;;;;6.32;66.06;102851.56;7371452;19;19927;-67
2024/01/09 07:36:02;;;;;;;;;;;;;;;6.32;66.91;102846.38;7367464;19;20343;-67
2024/01/09 07:38:27;;;;;;;;;;;;;;;6.31;66.42;102848.09;7356125;19;19932;-67
2024/01/09 07:40:53;;;;;;;;;;;;;;;6.33;66.65;102851.59;7364212;19;19911;-67
2024/01/09 07:43:18;;;;;;;;;;;;;;;6.32;66.61;102852.44;7364622;19;19911;-67
2024/01/09 07:45:43;;;;;;;;;;;;;;;6.31;65.89;102850.69;7366767;19;19911;-67
2024/01/09 07:48:08;;;;;;;;;;;;;;;6.32;66.51;102852.44;7361559;19;20528;-67
2024/01/09 07:50:34;;;;;;;;;;;;;;;6.33;66.59;102855.91;7366545;19;19934;-67
2024/01/09 07:52:59;;;;;;;;;;;;;;;6.32;66.14;102862.81;7369349;19;20528;-67
2024/01/09 07:55:25;;;;;;;;;;;;;;;6.32;66.61;102857.63;7367260;19;19927;-67
2024/01/09 07:57:50;;;;;;;;;;;;;;;6.32;66.20;102862.81;7356413;19;19926;-67
2024/01/09 08:00:15;;;;;;;;;;;;;;;6.29;66.41;102856.69;7368172;19;19930;-67
2024/01/09 08:02:41;;;;;;;;;;;;;;;6.32;66.64;102860.22;7363834;19;19942;-67
2024/01/09 08:05:06;;;;;;;;;;;;;;;6.32;66.39;102867.13;7368921;19;19934;-67
2024/01/09 08:07:32;;;;;;;;;;;;;;;6.32;66.22;102862.81;7362896;19;20339;-67
2024/01/09 08:09:57;;;;;;;;;;;;;;;6.32;66.48;102872.31;7363226;19;19929;-67
2024/01/09 08:12:22;;;;;;;;;;;;;;;6.31;66.57;102871.44;7361555;19;19922;-67
2024/01/09 08:14:49;;;;;;;;;;;;;;;6.29;66.38;102873.13;7364882;19;19946;-67
2024/01/09 08:17:14;;;;;;;;;;;;;;;6.29;66.71;102878.31;7365167;19;19914;-67
2024/01/09 08:19:39;;;;;;;;;;;;;;;6.28;66.22;102870.47;7370458;19;19925;-67
2024/01/09 08:22:05;;;;;;;;;;;;;;;6.27;66.55;102882.56;7363951;19;19938;-67
2024/01/09 08:24:31;;;;;;;;;;;;;;;6.27;66.61;102885.16;7368892;19;19919;-68
2024/01/09 08:26:57;;;;;;;;;;;;;;;6.27;66.23;102876.50;7368609;19;19978;-67
2024/01/09 08:29:26;;;;;;;;;;;;;;;6.25;66.47;102873.88;7372471;19;20397;-67
2024/01/09 08:31:52;;;;;;;;;;;;;;;6.23;65.88;102878.09;7369714;19;19919;-67
2024/01/09 08:34:17;;;;;;;;;;;;;;;6.22;65.81;102881.53;7366341;19;19959;-67
2024/01/09 08:36:43;;;;;;;;;;;;;;;6.21;66.45;102887.56;7362041;19;19940;-67
2024/01/09 08:39:12;;;;;;;;;;;;;;;6.20;66.76;102875.44;7366360;19;19923;-67
2024/01/09 08:41:37;;;;;;;;;;;;;;;6.19;66.75;102882.34;7368545;19;19950;-67
2024/01/09 08:44:02;;;;;;;;;;;;;;;6.19;65.83;102881.47;7363173;19;20280;-67
2024/01/09 08:46:28;;;;;;;;;;;;;;;6.18;65.77;102883.19;7363866;19;19914;-67
2024/01/09 08:48:53;;;;;;;;;;;;;;;6.18;66.31;102887.47;7362145;19;20437;-67
2024/01/09 08:51:18;;;;;;;;;;;;;;;6.19;66.39;102897.91;7335723;19;19937;-67
2024/01/09 08:53:44;;;;;;;;;;;;;;;6.19;66.23;102891.84;7364268;19;19982;-67
2024/01/09 08:56:09;;;;;;;;;;;;;;;6.18;65.54;102903.94;7363070;19;20045;-67
2024/01/09 08:58:35;;;;;;;;;;;;;;;6.19;66.25;102884.06;7362212;19;19915;-67
2024/01/09 09:01:00;;;;;;;;;;;;;;;6.19;66.44;102897.91;7351830;19;20752;-67
2024/01/09 09:03:25;;;;;;;;;;;;;;;6.19;66.10;102912.59;7361481;19;19915;-67
2024/01/09 09:05:51;;;;;;;;;;;;;;;6.20;66.36;102903.97;7357281;19;19930;-67
2024/01/09 09:08:16;;;;;;;;;;;;;;;6.19;65.74;102894.44;7359698;19;19923;-67
2024/01/09 09:10:41;;;;;;;;;;;;;;;6.19;66.29;102905.69;7366959;19;20585;-67
2024/01/09 09:13:07;;;;;;;;;;;;;;;6.21;66.24;102916.13;7368962;19;19919;-67
2024/01/09 09:15:32;;;;;;;;;;;;;;;6.22;66.20;102917.88;7369348;19;19942;-67
2024/01/09 09:17:57;;;;;;;;;;;;;;;6.22;65.54;102917.88;7360034;19;19915;-67
2024/01/09 09:20:23;;;;;;;;;;;;;;;6.23;65.79;102910.16;7361779;19;19923;-67
2024/01/09 09:22:48;;;;;;;;;;;;;;;6.24;65.95;102916.22;7361006;19;19928;-67
2024/01/09 09:25:13;;;;;;;;;;;;;;;6.25;66.25;102912.78;7366819;19;19957;-67
2024/01/09 09:27:41;;;;;;;;;;;;;;;6.26;66.26;102914.53;7366567;19;19922;-67
2024/01/09 09:30:07;;;;;;;;;;;;;;;6.28;65.99;102918.03;7359878;19;20598;-67
2024/01/09 09:32:33;;;;;;;;;;;;;;;6.28;66.48;102919.75;7360709;19;19943;-67
2024/01/09 09:34:58;;;;;;;;;;;;;;;6.30;66.54;102920.72;7361321;19;19931;-67
2024/01/09 09:37:24;;;;;;;;;;;;;;;6.31;66.48;102928.53;7361307;19;19922;-67
2024/01/09 09:39:49;;;;;;;;;;;;;;;6.31;66.00;102925.06;7363333;19;19919;-67
2024/01/09 09:42:14;;;;;;;;;;;;;;;6.31;66.04;102923.34;7354568;19;20397;-67
2024/01/09 09:44:40;;;;;;;;;;;;;;;6.31;66.48;102931.13;7357634;19;19919;-67
2024/01/09 09:47:08;;;;;;;;;;;;;;;6.32;66.69;102930.28;7357542;19;20463;-67
2024/01/09 09:49:36;;;;;;;;;;;;;;;6.33;66.24;102932.03;7356609;19;20528;-67
2024/01/09 09:52:01;;;;;;;;;;;;;;;6.33;66.79;102932.03;7359376;19;19931;-67
2024/01/09 09:54:26;;;;;;;;;;;;;;;6.34;66.93;102946.81;7360005;19;19928;-67
2024/01/09 09:56:52;;;;;;;;;;;;;;;6.36;67.09;102944.25;7357568;19;19942;-67
2024/01/09 09:59:17;;;;;;;;;;;;;;;6.37;66.81;102938.22;7356749;19;20644;-67
2024/01/09 10:01:44;;;;;;;;;;;;;;;6.37;66.67;102938.22;7355416;19;20000;-67
2024/01/09 10:04:24;;;;;;;;;;;;;;;6.36;66.29;102947.72;7354345;19;19922;-68
2024/01/09 10:06:51;;;;;;;;;;;;;;;6.38;66.01;102946.03;7350793;19;19925;-67
2024/01/09 10:09:16;;;;;;;;;;;;;;;6.33;65.91;102939.81;7353866;19;19923;-67
2024/01/09 10:11:42;;;;;;;;;;;;;;;6.39;65.86;102942.63;7360639;19;19986;-67
2024/01/09 10:14:08;;;;;;;;;;;;;;;6.40;66.22;102949.56;7358814;19;20260;-67
2024/01/09 10:16:48;;;;;;;;;;;;;;;6.41;66.73;102940.94;7358263;19;19927;-67
2024/01/09 10:19:13;;;;;;;;;;;;;;;6.42;66.66;102939.22;7359661;19;19926;-67
2024/01/09 10:21:38;;;;;;;;;;;;;;;6.43;66.52;102944.47;7360054;19;19923;-67
2024/01/09 10:24:04;;;;;;;;;;;;;;;6.44;66.29;102945.38;7358680;19;20364;-67
2024/01/09 10:26:29;;;;;;;;;;;;;;;6.45;66.40;102942.81;7356672;19;20552;-67
2024/01/09 10:28:57;;;;;;;;;;;;;;;6.45;66.50;102942.81;7357609;19;19915;-67
2024/01/09 10:31:23;;;;;;;;;;;;;;;6.46;66.31;102954.94;7359022;19;19927;-67
2024/01/09 10:33:49;;;;;;;;;;;;;;;6.50;66.15;102951.63;7358639;19;19927;-67
2024/01/09 10:36:14;;;;;;;;;;;;;;;6.57;66.49;102946.59;7355833;19;19930;-67
2024/01/09 10:38:40;;;;;;;;;;;;;;;6.62;66.62;102950.22;7358340;19;19921;-67
2024/01/09 10:41:16;;;;;;;;;;;;;;;6.66;66.72;102962.47;7358967;19;19930;-67
2024/01/09 10:43:41;;;;;;;;;;;;;;;6.70;65.96;102959.13;7360093;19;20263;-67
2024/01/09 10:46:06;;;;;;;;;;;;;;;6.74;66.35;102950.56;7358356;19;19923;-67
2024/01/09 10:48:32;;;;;;;;;;;;;;;6.79;66.31;102954.19;7357362;19;19927;-67
2024/01/09 10:51:02;;;;;;;;;;;;;;;6.81;65.58;102962.91;7354002;19;20185;-67
2024/01/09 10:53:28;;;;;;;;;;;;;;;6.83;64.97;102956.03;7356775;19;19926;-67
2024/01/09 10:55:54;;;;;;;;;;;;;;;6.93;66.80;102958.06;7352667;19;20714;-67
2024/01/09 10:58:19;;;;;;;;;;;;;;;7.05;67.23;102943.69;7341610;19;19923;-67
2024/01/09 11:00:45;;;;;;;;;;;;;;;7.17;66.69;102942.28;7355937;19;20035;-67
2024/01/09 11:03:11;;;;;;;;;;;;;;;7.30;66.62;102943.50;7358885;19;19915;-67
2024/01/09 11:05:37;;;;;;;;;;;;;;;7.42;67.16;102943.81;7357709;19;19915;-68
2024/01/09 11:08:05;;;;;;;;;;;;;;;7.50;66.31;102941.41;7354994;19;20795;-67
2024/01/09 11:10:31;;;;;;;;;;;;;;;7.57;66.46;102939.84;7357907;19;19926;-67
2024/01/09 11:12:58;;;;;;;;;;;;;;;7.62;66.21;102946.06;7358967;19;19929;-67
2024/01/09 11:15:29;;;;;;;;;;;;;;;7.64;65.96;102945.25;7363714;19;20010;-67
2024/01/09 11:18:01;;;;;;;;;;;;;;;7.67;65.80;102941.84;7362834;19;19927;-67
2024/01/09 11:20:27;;;;;;;;;;;;;;;7.67;66.05;102940.13;7352029;19;19936;-67
2024/01/09 11:22:52;;;;;;;;;;;;;;;7.71;66.20;102952.38;7352270;19;19932;-67
2024/01/09 11:25:22;;;;;;;;;;;;;;;7.75;66.38;102948.97;7352790;19;19930;-67
2024/01/09 11:27:49;;;;;;;;;;;;;;;7.79;64.86;102949.94;7359570;19;20282;-67
2024/01/09 11:30:15;;;;;;;;;;;;;;;7.82;65.99;102944.84;7354436;19;19923;-68
2024/01/09 11:32:41;;;;;;;;;;;;;;;7.83;65.75;102940.50;7355425;19;19929;-67
2024/01/09 11:35:07;;;;;;;;;;;;;;;7.82;65.65;102929.22;7355700;19;20340;-67
2024/01/09 11:37:32;;;;;;;;;;;;;;;7.83;65.59;102940.50;7351081;19;19922;-67
2024/01/09 11:39:58;;;;;;;;;;;;;;;7.84;65.44;102948.34;7355650;19;19928;-67
2024/01/09 11:42:24;;;;;;;;;;;;;;;7.89;66.10;102958.84;7352897;19;19939;-68
2024/01/09 11:44:49;;;;;;;;;;;;;;;7.89;65.34;102936.31;7359347;19;19926;-67
2024/01/09 11:47:15;;;;;;;;;;;;;;;7.90;64.93;102932.88;7354306;19;20728;-67
2024/01/09 11:49:40;;;;;;;;;;;;;;;7.89;65.27;102935.44;7352972;19;19955;-67
2024/01/09 11:52:05;;;;;;;;;;;;;;;7.88;65.35;102931.97;7360308;19;19915;-67
2024/01/09 11:54:30;;;;;;;;;;;;;;;7.88;64.74;102944.97;7361928;19;19927;-67
2024/01/09 11:56:56;;;;;;;;;;;;;;;7.86;64.65;102936.28;7362296;19;20627;-67
2024/01/09 11:59:21;;;;;;;;;;;;;;;7.84;65.23;102937.94;7360710;19;19937;-67
2024/01/09 12:01:47;;;;;;;;;;;;;;;7.84;64.71;102931.84;7362138;19;19915;-67
2024/01/09 12:04:13;;;;;;;;;;;;;;;7.80;64.13;102928.28;7361289;19;19978;-67
2024/01/09 12:06:38;;;;;;;;;;;;;;;7.78;65.13;102927.38;7362396;19;19926;-67
2024/01/09 12:09:04;;;;;;;;;;;;;;;7.76;64.54;102919.56;7359065;19;19911;-67
2024/01/09 12:11:29;;;;;;;;;;;;;;;7.75;65.50;102922.97;7362619;19;19915;-67
2024/01/09 12:13:59;;;;;;;;;;;;;;;7.74;64.51;102917.75;7364246;19;19927;-67
2024/01/09 12:16:25;;;;;;;;;;;;;;;7.73;64.85;102918.59;7362102;19;19935;-67
2024/01/09 12:18:52;;;;;;;;;;;;;;;7.74;65.23;102915.13;7371048;19;19916;-67
2024/01/09 12:21:18;;;;;;;;;;;;;;;7.73;65.10;102918.59;7363354;19;19982;-67
2024/01/09 12:23:43;;;;;;;;;;;;;;;7.72;64.07;102914.25;7363567;19;20894;-67
2024/01/09 12:26:09;;;;;;;;;;;;;;;7.70;64.07;102908.09;7365013;19;19990;-67
2024/01/09 12:28:35;;;;;;;;;;;;;;;7.70;64.80;102919.38;7364566;19;19929;-67
2024/01/09 12:31:03;;;;;;;;;;;;;;;7.69;64.08;102908.94;7359790;19;20395;-67
2024/01/09 12:33:29;;;;;;;;;;;;;;;7.67;64.62;102908.03;7365471;19;19919;-67
2024/01/09 12:35:55;;;;;;;;;;;;;;;7.67;64.30;102913.25;7359656;19;20356;-67
2024/01/09 12:38:22;;;;;;;;;;;;;;;7.65;64.16;102900.19;7363741;19;19927;-67
2024/01/09 12:40:56;;;;;;;;;;;;;;;7.66;64.96;102911.50;7364375;19;20939;-67